Accueil
METAR-TAF:

METAR-TAF

Aéroports :

Flora Municipal Airport

Flora, Illinois, États-Unis

latitude: 38-39-54N, longitude: 088-27-11W, altitude: 144 m

Observation

Le bulletin a été fait il y a 26 minutes, à 21:35 UTC
Vent 7 kt de sud/sud-est
Température 11°C
Humidité 66%
Pression 1022 hPa
Visibilité: 16.1 km
Ciel clair

METAR: KFOA 202135Z AUTO 15007KT 10SM CLR 11/05 A3017 RMK AO2 TSNO

Heure: 16:01 (22:01 UTC)


TAF: absent

Observations et prévisions météorologiques de plus de 4000 aéroports (messages METAR et TAF).

Les stations disponibles sont représentées par des disques jaunes et rouges sur la carte.

Passer la souris dessus pour voir le nom de la station.

Cliquer dessus pour voir les observations et prévisions météorologiques.

Pour changer de carte: cliquez sur les boutons verts avec une croix noire pour zoomer, sur le bouton vert avec un tiret pour effectuer un zoom arrière, ou sur les flèches vertes pour les cartes adjacentes.


METAR-TAF: